createdAt,value
2018-10-02T00:00:27.871Z,8.90
2018-10-02T00:02:55.172Z,9.00
2018-10-02T00:05:22.490Z,8.90
2018-10-02T00:07:49.803Z,8.90
2018-10-02T00:10:17.166Z,8.70
2018-10-02T00:12:44.516Z,8.70
2018-10-02T00:15:11.819Z,8.80
2018-10-02T00:17:39.138Z,8.90
2018-10-02T00:20:06.444Z,8.90
2018-10-02T00:22:33.755Z,8.90
2018-10-02T00:25:01.144Z,9.00
2018-10-02T00:27:28.441Z,9.10
2018-10-02T00:29:55.752Z,9.20
2018-10-02T00:32:23.207Z,9.20
2018-10-02T00:34:50.398Z,9.10
2018-10-02T00:37:17.719Z,9.10
2018-10-02T00:39:45.035Z,9.00
2018-10-02T00:42:12.369Z,9.00
2018-10-02T00:44:39.672Z,9.10
2018-10-02T00:47:07.002Z,9.00
2018-10-02T00:49:34.331Z,9.00
2018-10-02T00:52:01.630Z,9.00
2018-10-02T00:54:28.935Z,8.80
2018-10-02T00:56:56.271Z,8.80
2018-10-02T00:59:23.582Z,8.80
2018-10-02T01:01:50.953Z,8.80
2018-10-02T01:04:18.283Z,8.80
2018-10-02T01:06:45.604Z,8.80
2018-10-02T01:09:12.954Z,8.80
2018-10-02T01:11:40.281Z,8.60
2018-10-02T01:14:07.576Z,8.70
2018-10-02T01:16:34.884Z,8.70
2018-10-02T01:19:02.204Z,8.70
2018-10-02T01:21:29.517Z,8.60
2018-10-02T01:23:56.884Z,8.70
2018-10-02T01:26:24.225Z,8.70
2018-10-02T01:28:51.523Z,8.70
2018-10-02T01:31:18.838Z,8.80
2018-10-02T01:33:46.171Z,8.80
2018-10-02T01:36:13.484Z,8.70
2018-10-02T01:38:40.771Z,8.50
2018-10-02T01:41:08.102Z,8.50
2018-10-02T01:43:35.448Z,8.60
2018-10-02T01:46:02.777Z,8.50
2018-10-02T01:48:30.099Z,8.40
2018-10-02T01:50:57.411Z,8.40
2018-10-02T01:53:24.747Z,8.50
2018-10-02T01:55:52.063Z,8.60
2018-10-02T01:58:19.367Z,8.70
2018-10-02T02:00:46.689Z,8.70
2018-10-02T02:03:14.039Z,8.70
2018-10-02T02:05:41.555Z,8.80
2018-10-02T02:08:08.946Z,8.80
2018-10-02T02:10:36.422Z,8.60
2018-10-02T02:13:03.772Z,8.50
2018-10-02T02:15:31.066Z,8.40
2018-10-02T02:17:58.371Z,8.20
2018-10-02T02:20:25.692Z,8.20
2018-10-02T02:22:53.110Z,8.10
2018-10-02T02:25:20.435Z,8.00
2018-10-02T02:27:47.750Z,7.80
2018-10-02T02:30:15.711Z,7.80
2018-10-02T02:32:43.073Z,7.80
2018-10-02T02:35:10.451Z,7.70
2018-10-02T02:37:37.778Z,7.70
2018-10-02T02:40:05.267Z,7.60
2018-10-02T02:42:32.563Z,7.70
2018-10-02T02:44:59.908Z,7.80
2018-10-02T02:47:27.266Z,8.00
2018-10-02T02:49:54.560Z,8.00
2018-10-02T02:52:21.899Z,8.00
2018-10-02T02:54:49.183Z,8.00
2018-10-02T02:57:16.511Z,8.00
2018-10-02T02:59:43.823Z,8.10
2018-10-02T03:02:11.151Z,8.10
2018-10-02T03:04:38.483Z,8.10
2018-10-02T03:07:05.789Z,8.10
2018-10-02T03:09:33.115Z,8.20
2018-10-02T03:12:00.476Z,8.20
2018-10-02T03:14:27.836Z,8.20
2018-10-02T03:16:55.187Z,8.30
2018-10-02T03:19:22.500Z,8.50
2018-10-02T03:21:49.834Z,8.70
2018-10-02T03:24:17.138Z,8.80
2018-10-02T03:26:44.454Z,9.00
2018-10-02T03:29:11.812Z,9.10
2018-10-02T03:31:39.134Z,9.30
2018-10-02T03:34:06.439Z,9.40
2018-10-02T03:36:33.780Z,9.40
2018-10-02T03:39:01.107Z,9.40
2018-10-02T03:41:28.416Z,9.40
2018-10-02T03:43:55.726Z,9.40
2018-10-02T03:46:23.092Z,9.50
2018-10-02T03:48:50.432Z,9.30
2018-10-02T03:51:17.711Z,9.10
2018-10-02T03:53:45.019Z,9.20
2018-10-02T03:56:12.359Z,9.30
2018-10-02T03:58:39.671Z,9.20
2018-10-02T04:01:07.107Z,9.30
2018-10-02T04:03:34.459Z,9.40
2018-10-02T04:06:01.733Z,9.50
2018-10-02T04:08:29.064Z,9.60
2018-10-02T04:10:56.411Z,9.60
2018-10-02T04:13:23.782Z,9.60
2018-10-02T04:15:51.071Z,9.70
2018-10-02T04:18:18.382Z,9.70
2018-10-02T04:20:45.712Z,9.60
2018-10-02T04:23:12.994Z,9.60
2018-10-02T04:25:40.316Z,9.60
2018-10-02T04:28:07.675Z,9.50
2018-10-02T04:30:34.975Z,9.30
2018-10-02T04:33:02.308Z,9.00
2018-10-02T04:35:29.630Z,9.00
2018-10-02T04:37:56.994Z,8.90
2018-10-02T04:40:24.331Z,8.80
2018-10-02T04:42:51.655Z,8.80
2018-10-02T04:45:18.991Z,8.70
2018-10-02T04:47:46.357Z,8.60
2018-10-02T04:50:13.684Z,8.50
2018-10-02T04:52:41.022Z,8.40
2018-10-02T04:55:08.430Z,8.30
2018-10-02T04:57:35.705Z,8.20
2018-10-02T05:00:03.053Z,8.20
2018-10-02T05:02:30.377Z,8.20
2018-10-02T05:04:57.754Z,8.20
2018-10-02T05:07:25.071Z,8.10
2018-10-02T05:09:52.403Z,8.20
2018-10-02T05:12:19.725Z,8.20
2018-10-02T05:14:47.102Z,8.20
2018-10-02T05:17:14.428Z,8.10
2018-10-02T05:19:41.756Z,8.10
2018-10-02T05:22:09.067Z,8.10
2018-10-02T05:24:36.401Z,8.10
2018-10-02T05:27:04.459Z,8.20
2018-10-02T05:29:31.784Z,8.30
2018-10-02T05:31:59.112Z,8.40
2018-10-02T05:34:26.452Z,8.50
2018-10-02T05:36:53.803Z,8.40
2018-10-02T05:39:21.153Z,8.30
2018-10-02T05:41:48.476Z,8.30
2018-10-02T05:44:15.822Z,8.30
2018-10-02T05:46:43.193Z,8.30
2018-10-02T05:49:10.537Z,8.50
2018-10-02T05:51:37.969Z,8.50
2018-10-02T05:54:05.291Z,8.60
2018-10-02T05:56:32.636Z,8.50
2018-10-02T05:58:59.974Z,8.30
2018-10-02T06:01:27.384Z,8.30
2018-10-02T06:03:55.346Z,8.40
2018-10-02T06:06:22.692Z,8.50
2018-10-02T06:08:50.008Z,8.70
2018-10-02T06:11:17.372Z,8.80
2018-10-02T06:13:44.799Z,8.90
2018-10-02T06:16:12.138Z,9.10
2018-10-02T06:18:39.488Z,9.20
2018-10-02T06:21:06.807Z,9.30
2018-10-02T06:23:34.139Z,9.60
2018-10-02T06:26:01.474Z,9.70
2018-10-02T06:28:28.859Z,9.80
2018-10-02T06:30:56.348Z,10.00
2018-10-02T06:33:23.675Z,10.10
2018-10-02T06:35:50.999Z,10.20
2018-10-02T06:38:18.420Z,10.30
2018-10-02T06:40:45.716Z,10.30
2018-10-02T06:43:13.032Z,10.40
2018-10-02T06:45:40.395Z,10.40
2018-10-02T06:48:07.724Z,10.40
2018-10-02T06:50:35.110Z,10.30
2018-10-02T06:53:02.400Z,10.20
2018-10-02T06:55:29.996Z,10.10
2018-10-02T06:57:57.295Z,9.90
2018-10-02T07:00:24.622Z,9.90
2018-10-02T07:02:54.043Z,10.00
2018-10-02T07:05:21.760Z,10.00
2018-10-02T07:07:49.224Z,10.10
2018-10-02T07:10:16.531Z,10.20
2018-10-02T07:12:43.928Z,10.30
2018-10-02T07:15:11.336Z,10.30
2018-10-02T07:17:38.643Z,10.40
2018-10-02T07:20:06.031Z,10.40
2018-10-02T07:22:33.341Z,10.40
2018-10-02T07:25:00.685Z,10.40
2018-10-02T07:27:28.200Z,10.40
2018-10-02T07:29:55.344Z,10.30
2018-10-02T07:32:22.723Z,10.30
2018-10-02T07:34:50.012Z,10.40
2018-10-02T07:37:17.421Z,10.50
2018-10-02T07:39:44.732Z,10.60
2018-10-02T07:42:12.083Z,10.70
2018-10-02T07:44:39.501Z,10.70
2018-10-02T07:47:06.722Z,10.70
2018-10-02T07:49:34.081Z,10.80
2018-10-02T07:52:01.392Z,10.70
2018-10-02T07:54:28.740Z,10.70
2018-10-02T07:56:56.137Z,10.70
2018-10-02T07:59:23.455Z,10.80
2018-10-02T08:01:50.729Z,10.80
2018-10-02T08:04:18.080Z,10.90
2018-10-02T08:06:45.425Z,10.90
2018-10-02T08:09:12.939Z,11.00
2018-10-02T08:11:40.305Z,10.90
2018-10-02T08:14:07.628Z,10.80
2018-10-02T08:16:34.956Z,10.90
2018-10-02T08:19:02.301Z,10.90
2018-10-02T08:21:29.686Z,10.90
2018-10-02T08:23:57.041Z,11.00
2018-10-02T08:26:24.356Z,11.10
2018-10-02T08:28:51.643Z,11.20
2018-10-02T08:31:18.977Z,11.20
2018-10-02T08:33:46.302Z,11.20
2018-10-02T08:36:13.721Z,11.20
2018-10-02T08:38:40.977Z,11.30
2018-10-02T08:41:08.259Z,11.30
2018-10-02T08:43:35.674Z,11.30
2018-10-02T08:46:02.893Z,11.30
2018-10-02T08:48:30.259Z,11.30
2018-10-02T08:50:57.631Z,11.30
2018-10-02T08:53:24.991Z,11.20
2018-10-02T08:55:52.290Z,11.20
2018-10-02T08:58:19.602Z,11.20
2018-10-02T09:00:47.029Z,11.30
2018-10-02T09:03:14.354Z,11.50
2018-10-02T09:05:41.633Z,11.50
2018-10-02T09:08:08.957Z,11.40
2018-10-02T09:10:36.267Z,11.50
2018-10-02T09:13:03.639Z,11.60
2018-10-02T09:15:30.965Z,11.60
2018-10-02T09:17:58.228Z,11.60
2018-10-02T09:20:25.552Z,11.60
2018-10-02T09:22:52.888Z,11.50
2018-10-02T09:25:20.217Z,11.40
2018-10-02T09:27:47.599Z,11.30
2018-10-02T09:30:14.926Z,11.20
2018-10-02T09:32:42.203Z,11.20
2018-10-02T09:35:09.632Z,11.10
2018-10-02T09:37:36.951Z,11.30
2018-10-02T09:40:04.340Z,11.40
2018-10-02T09:42:31.641Z,11.40
2018-10-02T09:44:58.958Z,11.40
2018-10-02T09:47:26.300Z,11.30
2018-10-02T09:49:54.423Z,11.30
2018-10-02T09:52:21.668Z,11.30
2018-10-02T09:54:49.024Z,11.30
2018-10-02T09:57:16.330Z,11.40
2018-10-02T09:59:43.680Z,11.50
2018-10-02T10:02:11.011Z,11.60
2018-10-02T10:04:38.320Z,11.70
2018-10-02T10:07:05.660Z,11.70
2018-10-02T10:09:33.437Z,11.90
2018-10-02T10:12:01.478Z,12.00
2018-10-02T10:14:28.827Z,12.00
2018-10-02T10:16:56.157Z,12.00
2018-10-02T10:19:24.084Z,12.00
2018-10-02T10:21:51.414Z,11.90
2018-10-02T10:24:18.723Z,12.00
2018-10-02T10:26:46.043Z,11.80
2018-10-02T10:29:13.369Z,11.70
2018-10-02T10:31:41.318Z,11.60
2018-10-02T10:34:08.634Z,11.60
2018-10-02T10:36:36.032Z,11.40
2018-10-02T10:39:05.236Z,11.40
2018-10-02T10:41:32.584Z,11.30
2018-10-02T10:43:59.923Z,11.30
2018-10-02T10:46:27.365Z,11.20
2018-10-02T10:48:54.628Z,11.10
2018-10-02T10:51:22.051Z,11.10
2018-10-02T10:53:49.353Z,11.10
2018-10-02T10:56:16.658Z,11.10
2018-10-02T10:58:44.122Z,10.90
2018-10-02T11:01:11.317Z,10.90
2018-10-02T11:03:38.637Z,10.90
2018-10-02T11:06:06.171Z,10.90
2018-10-02T11:08:33.519Z,10.70
2018-10-02T11:11:00.855Z,10.60
2018-10-02T11:13:28.284Z,10.70
2018-10-02T11:15:55.682Z,10.50
2018-10-02T11:18:23.008Z,10.60
2018-10-02T11:20:50.371Z,10.60
2018-10-02T11:23:17.800Z,10.60
2018-10-02T11:25:45.165Z,10.50
2018-10-02T11:28:12.451Z,10.60
2018-10-02T11:30:39.784Z,10.50
2018-10-02T11:33:07.115Z,10.50
2018-10-02T11:35:34.504Z,10.40
2018-10-02T11:38:01.781Z,10.50
2018-10-02T11:40:29.119Z,10.50
2018-10-02T11:42:56.463Z,10.50
2018-10-02T11:45:23.788Z,10.50
2018-10-02T11:47:51.140Z,10.50
2018-10-02T11:50:18.478Z,10.40
2018-10-02T11:52:45.818Z,10.40
2018-10-02T11:55:13.208Z,10.30
2018-10-02T11:57:40.555Z,10.40
2018-10-02T12:00:08.093Z,10.40
2018-10-02T12:02:35.482Z,10.50
2018-10-02T12:05:02.801Z,10.50
2018-10-02T12:07:30.140Z,10.50
2018-10-02T12:09:57.482Z,10.40
2018-10-02T12:12:24.805Z,10.50
2018-10-02T12:14:52.190Z,10.50
2018-10-02T12:17:19.492Z,10.50
2018-10-02T12:19:47.048Z,10.50
2018-10-02T12:22:14.203Z,10.70
2018-10-02T12:24:41.528Z,10.70
2018-10-02T12:27:08.911Z,10.70
2018-10-02T12:29:36.223Z,10.60
2018-10-02T12:32:03.581Z,10.60
2018-10-02T12:34:30.996Z,10.60
2018-10-02T12:36:58.299Z,10.50
2018-10-02T12:39:25.680Z,10.50
2018-10-02T12:41:52.968Z,10.50
2018-10-02T12:44:20.313Z,10.50
2018-10-02T12:46:47.672Z,10.60
2018-10-02T12:49:14.969Z,10.50
2018-10-02T12:51:42.283Z,10.40
2018-10-02T12:54:09.616Z,10.40
2018-10-02T12:56:36.948Z,10.50
2018-10-02T12:59:04.281Z,10.50
2018-10-02T13:01:31.597Z,10.50
2018-10-02T13:03:58.912Z,10.40
2018-10-02T13:06:26.267Z,10.30
2018-10-02T13:08:53.589Z,10.30
2018-10-02T13:11:20.889Z,10.30
2018-10-02T13:13:48.203Z,10.20
2018-10-02T13:16:15.526Z,10.20
2018-10-02T13:18:42.863Z,10.20
2018-10-02T13:21:10.209Z,10.20
2018-10-02T13:23:37.511Z,10.30
2018-10-02T13:26:04.892Z,10.30
2018-10-02T13:28:32.235Z,10.40
2018-10-02T13:30:59.636Z,10.40
2018-10-02T13:33:26.948Z,10.40
2018-10-02T13:35:54.307Z,10.50
2018-10-02T13:38:21.632Z,10.60
2018-10-02T13:40:48.947Z,10.50
2018-10-02T13:43:16.290Z,10.50
2018-10-02T13:45:43.611Z,10.40
2018-10-02T13:48:10.948Z,10.40
2018-10-02T13:50:38.357Z,10.30
2018-10-02T13:53:05.598Z,10.50
2018-10-02T13:55:33.002Z,10.50
2018-10-02T13:58:00.329Z,10.60
2018-10-02T14:00:27.627Z,10.70
2018-10-02T14:02:54.994Z,10.80
2018-10-02T14:05:22.336Z,10.70
2018-10-02T14:07:49.659Z,10.70
2018-10-02T14:10:16.975Z,10.80
2018-10-02T14:12:44.305Z,10.90
2018-10-02T14:15:11.660Z,11.00
2018-10-02T14:17:39.158Z,11.10
2018-10-02T14:20:06.494Z,11.10
2018-10-02T14:22:33.842Z,11.20
2018-10-02T14:25:01.249Z,11.20
2018-10-02T14:27:28.557Z,11.20
2018-10-02T14:29:56.769Z,11.30
2018-10-02T14:32:24.097Z,11.30
2018-10-02T14:34:51.436Z,11.40
2018-10-02T14:37:18.776Z,11.40
2018-10-02T14:39:46.100Z,11.20
2018-10-02T14:42:13.498Z,11.20
2018-10-02T14:44:40.832Z,11.30
2018-10-02T14:47:08.269Z,11.30
2018-10-02T14:49:35.656Z,11.20
2018-10-02T14:52:03.027Z,11.10
2018-10-02T14:54:30.603Z,10.90
2018-10-02T14:56:58.031Z,11.00
2018-10-02T14:59:25.432Z,10.90
2018-10-02T15:01:52.676Z,10.80
2018-10-02T15:04:20.021Z,10.80
2018-10-02T15:06:47.349Z,10.70
2018-10-02T15:09:14.933Z,10.80
2018-10-02T15:11:42.274Z,10.80
2018-10-02T15:14:09.628Z,10.80
2018-10-02T15:16:37.060Z,10.80
2018-10-02T15:19:04.299Z,10.70
2018-10-02T15:21:31.603Z,10.80
2018-10-02T15:23:59.067Z,10.80
2018-10-02T15:26:26.327Z,10.80
2018-10-02T15:28:53.661Z,10.90
2018-10-02T15:31:21.052Z,10.90
2018-10-02T15:33:48.330Z,11.00
2018-10-02T15:36:15.655Z,11.00
2018-10-02T15:38:43.086Z,10.90
2018-10-02T15:41:10.757Z,11.00
2018-10-02T15:43:38.080Z,11.00
2018-10-02T15:46:05.446Z,11.10
2018-10-02T15:48:32.788Z,11.00
2018-10-02T15:51:00.116Z,11.00
2018-10-02T15:53:27.940Z,11.20
2018-10-02T15:55:55.262Z,11.10
2018-10-02T15:58:22.992Z,11.00
2018-10-02T16:00:50.443Z,11.00
2018-10-02T16:03:18.303Z,10.90
2018-10-02T16:05:45.640Z,11.00
2018-10-02T16:08:12.947Z,10.90
2018-10-02T16:10:40.386Z,10.90
2018-10-02T16:13:07.733Z,11.00
2018-10-02T16:15:35.709Z,11.10
2018-10-02T16:18:03.382Z,11.20
2018-10-02T16:20:30.902Z,11.30
2018-10-02T16:22:58.612Z,11.20
2018-10-02T16:25:26.335Z,11.10
2018-10-02T16:27:53.792Z,11.10
2018-10-02T16:30:21.540Z,11.10
2018-10-02T16:32:48.866Z,11.20
2018-10-02T16:35:16.411Z,11.20
2018-10-02T16:37:43.756Z,11.20
2018-10-02T16:40:11.076Z,11.20
2018-10-02T16:42:38.532Z,11.00
2018-10-02T16:45:06.211Z,11.00
2018-10-02T16:47:33.536Z,11.10
2018-10-02T16:50:01.169Z,11.20
2018-10-02T16:52:28.524Z,11.10
2018-10-02T16:54:55.890Z,11.00
2018-10-02T16:57:23.465Z,11.00
2018-10-02T16:59:51.303Z,10.90
2018-10-02T17:02:18.686Z,11.00
2018-10-02T17:04:45.992Z,11.00
2018-10-02T17:07:13.341Z,10.90
2018-10-02T17:09:40.645Z,11.00
2018-10-02T17:12:08.169Z,11.20
2018-10-02T17:14:35.479Z,11.40
2018-10-02T17:17:02.831Z,11.40
2018-10-02T17:19:30.172Z,11.30
2018-10-02T17:21:57.881Z,11.30
2018-10-02T17:24:25.169Z,11.20
2018-10-02T17:26:52.488Z,11.30
2018-10-02T17:29:20.359Z,11.10
2018-10-02T17:31:48.041Z,11.20
2018-10-02T17:34:15.371Z,11.30
2018-10-02T17:36:42.786Z,11.40
2018-10-02T17:39:10.144Z,11.40
2018-10-02T17:41:37.629Z,11.50
2018-10-02T17:44:05.109Z,11.40
2018-10-02T17:46:32.523Z,11.50
2018-10-02T17:48:59.944Z,11.50
2018-10-02T17:51:27.373Z,11.60
2018-10-02T17:53:54.744Z,11.60
2018-10-02T17:56:22.188Z,11.60
2018-10-02T17:58:49.641Z,11.60
2018-10-02T18:01:17.078Z,11.60
2018-10-02T18:03:44.407Z,11.50
2018-10-02T18:06:11.856Z,11.50
2018-10-02T18:08:39.186Z,11.60
2018-10-02T18:11:06.498Z,11.70
2018-10-02T18:13:33.828Z,11.80
2018-10-02T18:16:01.150Z,11.90
2018-10-02T18:18:28.496Z,11.90
2018-10-02T18:20:55.822Z,11.80
2018-10-02T18:23:23.167Z,11.70
2018-10-02T18:25:50.533Z,11.60
2018-10-02T18:28:17.848Z,11.60
2018-10-02T18:30:45.173Z,11.30
2018-10-02T18:33:12.621Z,11.20
2018-10-02T18:35:40.197Z,11.20
2018-10-02T18:38:07.511Z,11.20
2018-10-02T18:40:34.896Z,11.10
2018-10-02T18:43:02.318Z,11.10
2018-10-02T18:45:29.739Z,11.30
2018-10-02T18:47:57.083Z,11.40
2018-10-02T18:50:24.392Z,11.50
2018-10-02T18:52:51.741Z,11.60
2018-10-02T18:55:19.073Z,11.60
2018-10-02T18:57:47.283Z,11.50
2018-10-02T19:00:14.646Z,11.30
2018-10-02T19:02:42.004Z,11.30
2018-10-02T19:05:09.336Z,11.30
2018-10-02T19:07:36.658Z,11.30
2018-10-02T19:10:04.101Z,11.40
2018-10-02T19:12:31.423Z,11.60
2018-10-02T19:14:58.733Z,11.80
2018-10-02T19:17:26.069Z,11.90
2018-10-02T19:19:53.393Z,12.00
2018-10-02T19:22:20.777Z,11.90
2018-10-02T19:24:48.187Z,11.80
2018-10-02T19:27:15.468Z,11.70
2018-10-02T19:29:42.871Z,11.60
2018-10-02T19:32:10.207Z,11.60
2018-10-02T19:34:37.560Z,11.50
2018-10-02T19:37:04.895Z,11.60
2018-10-02T19:39:32.269Z,11.60
2018-10-02T19:41:59.593Z,11.60
2018-10-02T19:44:26.937Z,11.60
2018-10-02T19:46:54.281Z,11.80
2018-10-02T19:49:21.631Z,11.80
2018-10-02T19:51:48.969Z,11.80
2018-10-02T19:54:16.280Z,11.60
2018-10-02T19:56:43.620Z,11.50
2018-10-02T19:59:10.964Z,11.60
2018-10-02T20:01:38.321Z,11.90
2018-10-02T20:04:05.816Z,12.00
2018-10-02T20:06:33.169Z,12.10
2018-10-02T20:09:00.557Z,11.80
2018-10-02T20:11:27.896Z,11.70
2018-10-02T20:13:55.236Z,11.60
2018-10-02T20:16:22.628Z,11.60
2018-10-02T20:18:49.954Z,11.40
2018-10-02T20:21:17.305Z,11.40
2018-10-02T20:23:44.594Z,11.50
2018-10-02T20:26:11.945Z,11.60
2018-10-02T20:28:39.264Z,11.50
2018-10-02T20:31:06.649Z,11.40
2018-10-02T20:33:33.981Z,11.50
2018-10-02T20:36:01.352Z,11.60
2018-10-02T20:38:28.729Z,11.60
2018-10-02T20:40:56.065Z,11.50
2018-10-02T20:43:23.388Z,11.60
2018-10-02T20:45:50.697Z,11.80
2018-10-02T20:48:18.057Z,11.70
2018-10-02T20:50:45.397Z,11.80
2018-10-02T20:53:12.708Z,12.00
2018-10-02T20:55:40.022Z,12.10
2018-10-02T20:58:07.391Z,12.20
2018-10-02T21:00:34.799Z,12.30
2018-10-02T21:03:02.141Z,12.30
2018-10-02T21:05:29.478Z,12.30
2018-10-02T21:07:56.815Z,12.20
2018-10-02T21:10:24.193Z,12.30
2018-10-02T21:12:51.474Z,12.20
2018-10-02T21:15:18.865Z,12.10
2018-10-02T21:17:46.153Z,12.20
2018-10-02T21:20:13.550Z,12.20
2018-10-02T21:22:40.880Z,12.20
2018-10-02T21:25:08.190Z,12.20
2018-10-02T21:27:35.604Z,12.20
2018-10-02T21:30:02.925Z,12.30
2018-10-02T21:32:30.285Z,12.20
2018-10-02T21:34:57.585Z,12.20
2018-10-02T21:37:24.911Z,12.20
2018-10-02T21:39:52.310Z,12.20
2018-10-02T21:42:19.604Z,12.20
2018-10-02T21:44:46.933Z,12.20
2018-10-02T21:47:14.259Z,12.10
2018-10-02T21:49:41.592Z,12.20
2018-10-02T21:52:08.947Z,12.20
2018-10-02T21:54:36.336Z,12.20
2018-10-02T21:57:03.775Z,12.20
2018-10-02T21:59:31.034Z,12.30
2018-10-02T22:01:58.401Z,12.30
2018-10-02T22:04:25.703Z,12.30
2018-10-02T22:06:53.036Z,12.30
2018-10-02T22:09:20.383Z,12.40
2018-10-02T22:11:47.705Z,12.40
2018-10-02T22:14:15.054Z,12.30
2018-10-02T22:16:42.376Z,12.20
2018-10-02T22:19:09.796Z,12.20
2018-10-02T22:21:37.134Z,12.20
2018-10-02T22:24:04.560Z,12.10
2018-10-02T22:26:31.819Z,12.10
2018-10-02T22:28:59.143Z,12.10
2018-10-02T22:31:26.492Z,12.20
2018-10-02T22:33:53.840Z,12.20
2018-10-02T22:36:21.138Z,12.20
2018-10-02T22:38:48.496Z,12.10
2018-10-02T22:41:15.921Z,12.10
2018-10-02T22:43:43.736Z,12.10
2018-10-02T22:46:11.113Z,12.20
2018-10-02T22:48:38.433Z,12.10
2018-10-02T22:51:05.808Z,12.10
2018-10-02T22:53:34.068Z,12.10
2018-10-02T22:56:01.383Z,12.20
2018-10-02T22:58:28.724Z,12.20
2018-10-02T23:00:56.025Z,12.20
2018-10-02T23:03:23.361Z,12.30
2018-10-02T23:05:50.692Z,12.40
2018-10-02T23:08:17.995Z,12.30
2018-10-02T23:10:45.429Z,12.40
2018-10-02T23:13:12.754Z,12.40
2018-10-02T23:15:40.068Z,12.40
2018-10-02T23:18:07.408Z,12.30
2018-10-02T23:20:34.747Z,12.30
2018-10-02T23:23:02.098Z,12.30
2018-10-02T23:25:29.426Z,12.30
2018-10-02T23:27:56.773Z,12.30
2018-10-02T23:30:24.156Z,12.30
2018-10-02T23:32:51.519Z,12.30
2018-10-02T23:35:18.808Z,12.40
2018-10-02T23:37:46.168Z,12.40
2018-10-02T23:40:13.688Z,12.40
2018-10-02T23:42:41.008Z,12.40
2018-10-02T23:45:08.341Z,12.40
2018-10-02T23:47:35.647Z,12.50
2018-10-02T23:50:02.966Z,12.50
2018-10-02T23:52:30.300Z,12.50
2018-10-02T23:54:57.645Z,12.50
2018-10-02T23:57:24.967Z,12.50
2018-10-02T23:59:52.310Z,12.50
